Hlavní strana
METAR-TAF:

METAR-TAF

Letiště :

Huesca, Španělsko

zeměpisná šířka: 42-04-32N, zeměpisná délka: 0-18-58W, výška: 539 m

Aktuální stav počasí

Zpráva byla vytvořena před 28 minutami, v 09:00 UTC
Východojihovýchodní vítr 10 kt, proměnlivý mezi východním a jihojihovýchodním
Teplota 15°C
Vlhkost vzduchu 55%
Tlak 1022 hPa
Viditelnost 10 km a více
Žádná oblačnost pod 1500 m, nevyskytují se cumulonimby.

METAR: LEHC 100900Z AUTO 11010KT 080V150 CAVOK 15/06 Q1022

Čas: 11:28 (09:28 UTC)

Předpověď počasí

Zpráva byla vytvořena před 1 hodinou a 28 minutami, v 08:00 UTC
Předpověď platná od 10 v 09 UTC do 11 v 09 UTC
vítr z různých směrů 4 kt
Viditelnost 10 km a více
Polojasno ve výšce 5000 ft
Pravděpodobnost 30% :
Dočasný
od 11 v 00 UTC do 11 v 09 UTC
Viditelnost: 3000 m
Oblačno až skoro zataženo ve výšce 4000 ft
déšť

TAF: LEHC 100800Z 1009/1109 VRB04KT 9999 SCT050 TX18/1012Z TN10/1106Z PROB30 TEMPO 1100/1109 3000 RA BKN040

Stav a předpovědi počasí z více než 4 000 letišť (zprávy METAR a TAF).

Červené a žluté tečky na mapě představují dostupné meteorologické stanice.

Když kurzor umístíte na tečku, zobrazí se název stanice.

Pak kliknutím zobrazíte stav a předpověď počasí.

Chcete-li změnit mapu, kliknutím na zelené tlačítko se znaménkem +mapu přiblížíte, kliknutím na zelené tlačítko se znaménkem – mapu oddálíte a kliknutím na zelené šipky přejdete na sousední mapy.


METAR-TAF: